createdAt,value
2022-12-03T00:02:24.608Z,54.60
2022-12-03T00:04:51.831Z,54.60
2022-12-03T00:07:18.828Z,54.70
2022-12-03T00:09:48.703Z,54.80
2022-12-03T00:12:15.475Z,54.90
2022-12-03T00:14:44.894Z,54.80
2022-12-03T00:17:11.983Z,54.80
2022-12-03T00:19:38.730Z,54.80
2022-12-03T00:22:05.461Z,54.90
2022-12-03T00:24:32.319Z,54.80
2022-12-03T00:27:00.449Z,54.90
2022-12-03T00:29:27.229Z,54.90
2022-12-03T00:31:54.031Z,54.90
2022-12-03T00:34:20.891Z,55.00
2022-12-03T00:36:48.016Z,55.10
2022-12-03T00:39:14.766Z,55.00
2022-12-03T00:41:41.491Z,54.80
2022-12-03T00:44:09.595Z,54.80
2022-12-03T00:46:36.551Z,54.80
2022-12-03T00:49:03.408Z,54.80
2022-12-03T00:51:30.202Z,54.70
2022-12-03T00:53:56.945Z,54.70
2022-12-03T00:56:23.695Z,54.60
2022-12-03T00:58:50.439Z,54.70
2022-12-03T01:01:18.729Z,54.60
2022-12-03T01:03:45.614Z,54.50
2022-12-03T01:06:12.390Z,54.50
2022-12-03T01:08:39.188Z,54.60
2022-12-03T01:11:06.149Z,54.60
2022-12-03T01:13:32.896Z,54.60
2022-12-03T01:15:59.733Z,54.70
2022-12-03T01:18:27.842Z,54.70
2022-12-03T01:20:54.629Z,54.60
2022-12-03T01:23:21.459Z,54.60
2022-12-03T01:25:48.296Z,54.60
2022-12-03T01:28:15.150Z,54.60
2022-12-03T01:30:41.870Z,54.60
2022-12-03T01:33:08.603Z,54.60
2022-12-03T01:35:36.704Z,54.50
2022-12-03T01:38:03.401Z,54.40
2022-12-03T01:40:30.180Z,54.40
2022-12-03T01:42:57.135Z,54.50
2022-12-03T01:45:24.133Z,54.60
2022-12-03T01:47:51.323Z,54.50
2022-12-03T01:50:21.027Z,54.50
2022-12-03T01:52:49.385Z,54.50
2022-12-03T01:55:18.706Z,54.40
2022-12-03T01:57:48.302Z,54.40
2022-12-03T02:00:17.437Z,54.40
2022-12-03T02:02:44.911Z,54.30
2022-12-03T02:05:17.310Z,54.30
2022-12-03T02:07:44.301Z,54.30
2022-12-03T02:10:13.936Z,54.30
2022-12-03T02:12:43.819Z,54.40
2022-12-03T02:15:11.441Z,54.30
2022-12-03T02:17:38.778Z,54.40
2022-12-03T02:20:07.835Z,54.30
2022-12-03T02:22:40.157Z,54.30
2022-12-03T02:25:12.206Z,54.30
2022-12-03T02:27:39.124Z,54.20
2022-12-03T02:30:07.940Z,54.30
2022-12-03T02:32:34.712Z,54.30
2022-12-03T02:35:01.468Z,54.40
2022-12-03T02:37:34.868Z,54.30
2022-12-03T02:40:06.191Z,54.20
2022-12-03T02:42:34.451Z,54.40
2022-12-03T02:45:05.654Z,54.40
2022-12-03T02:47:35.198Z,54.30
2022-12-03T02:50:02.567Z,54.30
2022-12-03T02:52:29.546Z,54.40
2022-12-03T02:54:56.529Z,55.20
2022-12-03T02:57:23.423Z,54.40
2022-12-03T02:59:51.712Z,54.40
2022-12-03T03:02:19.106Z,54.30
2022-12-03T03:04:46.246Z,54.40
2022-12-03T03:07:13.914Z,54.50
2022-12-03T03:09:41.061Z,54.40
2022-12-03T03:12:07.930Z,54.40
2022-12-03T03:14:35.267Z,54.20
2022-12-03T03:17:03.653Z,54.30
2022-12-03T03:19:30.679Z,54.30
2022-12-03T03:21:57.509Z,54.30
2022-12-03T03:24:24.982Z,54.40
2022-12-03T03:26:51.897Z,54.40
2022-12-03T03:29:19.395Z,54.40
2022-12-03T03:31:46.980Z,54.40
2022-12-03T03:34:16.148Z,54.30
2022-12-03T03:36:43.252Z,54.30
2022-12-03T03:39:10.270Z,54.30
2022-12-03T03:41:37.600Z,54.40
2022-12-03T03:44:07.916Z,54.30
2022-12-03T03:46:36.036Z,54.40
2022-12-03T03:49:04.079Z,54.30
2022-12-03T03:51:33.677Z,54.30
2022-12-03T03:54:01.663Z,54.30
2022-12-03T03:56:28.540Z,54.30
2022-12-03T03:58:55.721Z,54.30
2022-12-03T04:01:24.094Z,54.20
2022-12-03T04:03:51.420Z,54.10
2022-12-03T04:06:18.326Z,54.10
2022-12-03T04:08:46.499Z,54.20
2022-12-03T04:11:13.258Z,54.20
2022-12-03T04:13:40.115Z,54.10
2022-12-03T04:16:07.281Z,54.10
2022-12-03T04:18:34.074Z,54.30
2022-12-03T04:21:00.836Z,54.30
2022-12-03T04:23:30.873Z,54.30
2022-12-03T04:25:59.241Z,54.30
2022-12-03T04:28:26.083Z,54.30
2022-12-03T04:30:52.987Z,54.30
2022-12-03T04:33:19.841Z,54.20
2022-12-03T04:35:46.932Z,54.20
2022-12-03T04:38:15.659Z,54.30
2022-12-03T04:40:42.802Z,54.10
2022-12-03T04:43:10.879Z,54.20
2022-12-03T04:45:37.618Z,54.10
2022-12-03T04:48:04.837Z,54.10
2022-12-03T04:50:31.593Z,54.10
2022-12-03T04:52:58.334Z,54.10
2022-12-03T04:55:25.149Z,54.10
2022-12-03T04:57:51.876Z,54.20
2022-12-03T05:00:20.317Z,54.20
2022-12-03T05:02:47.189Z,54.20
2022-12-03T05:05:14.197Z,54.20
2022-12-03T05:07:40.976Z,54.20
2022-12-03T05:10:08.983Z,54.10
2022-12-03T05:12:36.151Z,54.10
2022-12-03T05:15:03.362Z,54.10
2022-12-03T05:17:31.694Z,54.20
2022-12-03T05:19:58.458Z,54.30
2022-12-03T05:22:25.283Z,54.20
2022-12-03T05:24:52.449Z,54.20
2022-12-03T05:27:23.682Z,54.20
2022-12-03T05:29:50.949Z,54.20
2022-12-03T05:32:17.756Z,54.10
2022-12-03T05:34:45.927Z,54.10
2022-12-03T05:37:12.888Z,54.20
2022-12-03T05:39:39.750Z,54.20
2022-12-03T05:42:06.500Z,54.20
2022-12-03T05:44:33.240Z,54.20
2022-12-03T05:47:00.036Z,54.10
2022-12-03T05:49:26.777Z,54.10
2022-12-03T05:51:58.385Z,54.20
2022-12-03T05:54:25.653Z,54.20
2022-12-03T05:56:52.421Z,54.30
2022-12-03T05:59:19.159Z,54.20
2022-12-03T06:01:46.025Z,54.30
2022-12-03T06:04:12.814Z,54.40
2022-12-03T06:06:39.569Z,54.30
2022-12-03T06:09:07.673Z,54.30
2022-12-03T06:11:34.543Z,54.10
2022-12-03T06:14:01.419Z,54.20
2022-12-03T06:16:28.393Z,54.40
2022-12-03T06:18:55.266Z,54.20
2022-12-03T06:21:22.049Z,54.20
2022-12-03T06:23:48.791Z,54.30
2022-12-03T06:26:16.887Z,54.20
2022-12-03T06:28:43.683Z,54.20
2022-12-03T06:31:10.471Z,54.20
2022-12-03T06:33:37.209Z,54.20
2022-12-03T06:36:04.322Z,54.20
2022-12-03T06:38:31.108Z,54.10
2022-12-03T06:40:57.958Z,54.10
2022-12-03T06:43:26.056Z,54.10
2022-12-03T06:45:52.823Z,54.10
2022-12-03T06:48:19.556Z,54.10
2022-12-03T06:50:46.431Z,54.20
2022-12-03T06:53:13.178Z,54.10
2022-12-03T06:55:39.942Z,54.10
2022-12-03T06:58:06.930Z,54.00
2022-12-03T07:00:35.088Z,54.10
2022-12-03T07:03:01.892Z,54.00
2022-12-03T07:05:28.680Z,54.10
2022-12-03T07:07:55.507Z,54.00
2022-12-03T07:10:22.638Z,54.00
2022-12-03T07:12:49.365Z,54.00
2022-12-03T07:15:16.265Z,54.20
2022-12-03T07:17:44.372Z,54.00
2022-12-03T07:20:11.738Z,54.00
2022-12-03T07:22:38.496Z,53.90
2022-12-03T07:25:06.121Z,53.90
2022-12-03T07:27:32.850Z,54.00
2022-12-03T07:29:59.789Z,54.00
2022-12-03T07:32:26.524Z,53.90
2022-12-03T07:34:54.841Z,53.90
2022-12-03T07:37:23.449Z,53.80
2022-12-03T07:39:50.331Z,53.80
2022-12-03T07:42:17.085Z,53.80
2022-12-03T07:44:43.774Z,53.80
2022-12-03T07:47:10.536Z,53.90
2022-12-03T07:49:37.456Z,53.90
2022-12-03T07:52:05.718Z,53.80
2022-12-03T07:54:32.691Z,53.80
2022-12-03T07:57:01.695Z,53.80
2022-12-03T07:59:29.143Z,53.70
2022-12-03T08:01:56.049Z,53.80
2022-12-03T08:04:22.891Z,53.80
2022-12-03T08:06:49.611Z,53.80
2022-12-03T08:09:17.689Z,53.70
2022-12-03T08:11:47.255Z,53.70
2022-12-03T08:14:15.559Z,53.70
2022-12-03T08:16:44.356Z,53.70
2022-12-03T08:19:11.991Z,53.80
2022-12-03T08:21:39.611Z,53.70
2022-12-03T08:24:13.972Z,53.80
2022-12-03T08:26:42.757Z,53.80
2022-12-03T08:29:10.305Z,53.70
2022-12-03T08:31:37.304Z,53.80
2022-12-03T08:34:16.145Z,53.80
2022-12-03T08:36:42.901Z,53.80
2022-12-03T08:39:26.581Z,53.80
2022-12-03T08:41:58.423Z,53.70
2022-12-03T08:44:27.816Z,53.70
2022-12-03T08:47:00.474Z,53.70
2022-12-03T08:49:27.366Z,53.70
2022-12-03T08:51:57.054Z,53.70
2022-12-03T08:54:24.844Z,53.70
2022-12-03T08:56:51.613Z,53.80
2022-12-03T08:59:28.759Z,53.80
2022-12-03T09:01:56.440Z,53.70
2022-12-03T09:04:26.627Z,53.70
2022-12-03T09:06:54.308Z,53.80
2022-12-03T09:09:22.077Z,54.20
2022-12-03T09:11:49.589Z,53.90
2022-12-03T09:14:18.897Z,53.40
2022-12-03T09:16:47.538Z,53.00
2022-12-03T09:19:14.434Z,52.80
2022-12-03T09:21:41.301Z,52.50
2022-12-03T09:24:08.255Z,52.40
2022-12-03T09:26:34.976Z,52.40
2022-12-03T09:29:01.677Z,52.40
2022-12-03T09:31:28.441Z,52.30
2022-12-03T09:33:56.560Z,52.10
2022-12-03T09:36:23.287Z,52.10
2022-12-03T09:38:50.080Z,52.20
2022-12-03T09:41:16.861Z,52.20
2022-12-03T09:44:03.436Z,52.20
2022-12-03T09:46:30.746Z,52.20
2022-12-03T09:48:58.858Z,52.00
2022-12-03T09:51:31.376Z,53.20
2022-12-03T09:53:58.829Z,53.80
2022-12-03T09:56:25.601Z,53.30
2022-12-03T09:58:52.622Z,53.20
2022-12-03T10:01:19.371Z,53.00
2022-12-03T10:03:49.117Z,53.00
2022-12-03T10:06:20.378Z,53.00
2022-12-03T10:08:49.112Z,52.90
2022-12-03T10:11:16.827Z,52.90
2022-12-03T10:13:44.119Z,53.00
2022-12-03T10:16:12.196Z,53.00
2022-12-03T10:18:42.790Z,53.10
2022-12-03T10:21:17.621Z,53.10
2022-12-03T10:23:48.357Z,53.10
2022-12-03T10:26:17.689Z,53.20
2022-12-03T10:28:45.897Z,53.20
2022-12-03T10:31:13.872Z,53.10
2022-12-03T10:33:42.744Z,53.10
2022-12-03T10:36:21.737Z,53.10
2022-12-03T10:39:06.900Z,53.10
2022-12-03T10:41:33.928Z,53.10
2022-12-03T10:44:14.572Z,53.20
2022-12-03T10:46:41.640Z,53.10
2022-12-03T10:49:10.414Z,53.20
2022-12-03T10:51:39.067Z,53.10
2022-12-03T10:54:15.479Z,53.10
2022-12-03T10:56:42.247Z,53.10
2022-12-03T10:59:14.597Z,53.20
2022-12-03T11:01:41.450Z,53.20
2022-12-03T11:04:19.404Z,53.20
2022-12-03T11:06:46.301Z,53.10
2022-12-03T11:09:19.551Z,53.20
2022-12-03T11:11:46.735Z,54.00
2022-12-03T11:14:18.092Z,53.20
2022-12-03T11:17:08.947Z,53.20
2022-12-03T11:19:44.938Z,53.30
2022-12-03T11:22:26.517Z,53.50
2022-12-03T11:25:26.792Z,53.50
2022-12-03T11:28:33.027Z,53.40
2022-12-03T11:31:01.775Z,53.50
2022-12-03T11:33:30.801Z,53.60
2022-12-03T11:36:14.210Z,53.60
2022-12-03T11:38:53.927Z,53.40
2022-12-03T11:41:23.861Z,53.50
2022-12-03T11:44:04.651Z,53.50
2022-12-03T11:46:40.648Z,53.40
2022-12-03T11:49:27.862Z,53.40
2022-12-03T11:51:54.820Z,53.30
2022-12-03T11:54:23.614Z,53.40
2022-12-03T11:56:51.734Z,53.40
2022-12-03T11:59:20.079Z,53.40
2022-12-03T12:01:47.261Z,53.40
2022-12-03T12:04:34.692Z,53.40
2022-12-03T12:07:01.964Z,53.40
2022-12-03T12:09:47.751Z,53.40
2022-12-03T12:12:28.009Z,53.30
2022-12-03T12:14:56.502Z,53.30
2022-12-03T12:17:34.869Z,53.30
2022-12-03T12:20:23.876Z,53.30
2022-12-03T12:22:51.421Z,53.30
2022-12-03T12:25:41.962Z,53.50
2022-12-03T12:28:08.774Z,53.50
2022-12-03T12:30:37.024Z,53.70
2022-12-03T12:33:20.165Z,53.80
2022-12-03T12:35:46.913Z,53.90
2022-12-03T12:38:16.244Z,53.90
2022-12-03T12:40:44.625Z,54.00
2022-12-03T12:43:24.128Z,54.10
2022-12-03T12:45:54.784Z,54.10
2022-12-03T12:48:23.823Z,54.20
2022-12-03T12:50:53.419Z,54.20
2022-12-03T12:53:23.322Z,54.20
2022-12-03T12:55:55.107Z,54.30
2022-12-03T12:58:21.979Z,54.40
2022-12-03T13:00:52.977Z,54.40
2022-12-03T13:03:22.463Z,54.40
2022-12-03T13:05:50.898Z,54.40
2022-12-03T13:08:22.370Z,54.40
2022-12-03T13:10:49.852Z,54.40
2022-12-03T13:13:30.718Z,54.50
2022-12-03T13:16:05.255Z,54.30
2022-12-03T13:18:38.540Z,54.50
2022-12-03T13:21:34.526Z,54.50
2022-12-03T13:24:30.599Z,54.50
2022-12-03T13:26:57.883Z,54.60
2022-12-03T13:29:27.152Z,54.70
2022-12-03T13:31:55.681Z,54.60
2022-12-03T13:34:24.513Z,54.50
2022-12-03T13:36:57.719Z,54.60
2022-12-03T13:39:30.527Z,54.50
2022-12-03T13:41:59.379Z,54.50
2022-12-03T13:44:27.147Z,54.40
2022-12-03T13:46:53.881Z,54.40
2022-12-03T13:49:22.494Z,54.40
2022-12-03T13:51:50.218Z,54.30
2022-12-03T13:54:21.616Z,54.20
2022-12-03T13:56:50.179Z,54.30
2022-12-03T13:59:20.348Z,54.30
2022-12-03T14:01:49.925Z,54.20
2022-12-03T14:04:16.727Z,54.20
2022-12-03T14:06:43.481Z,54.00
2022-12-03T14:09:10.202Z,54.10
2022-12-03T14:11:36.938Z,54.00
2022-12-03T14:14:04.986Z,53.90
2022-12-03T14:16:31.765Z,53.90
2022-12-03T14:18:58.578Z,53.90
2022-12-03T14:21:25.343Z,53.80
2022-12-03T14:23:52.107Z,53.70
2022-12-03T14:26:18.855Z,53.70
2022-12-03T14:28:45.583Z,53.60
2022-12-03T14:31:13.706Z,53.50
2022-12-03T14:33:40.482Z,53.40
2022-12-03T14:36:07.804Z,53.40
2022-12-03T14:38:34.549Z,53.30
2022-12-03T14:41:01.287Z,53.30
2022-12-03T14:43:27.997Z,53.30
2022-12-03T14:45:54.806Z,53.30
2022-12-03T14:48:23.056Z,53.30
2022-12-03T14:50:49.778Z,53.30
2022-12-03T14:53:16.487Z,53.30
2022-12-03T14:55:43.180Z,53.20
2022-12-03T14:58:09.884Z,53.10
2022-12-03T15:00:36.583Z,53.10
2022-12-03T15:03:03.399Z,53.00
2022-12-03T15:05:31.560Z,53.00
2022-12-03T15:07:58.288Z,53.20
2022-12-03T15:10:25.033Z,53.00
2022-12-03T15:12:51.754Z,52.90
2022-12-03T15:15:18.451Z,53.00
2022-12-03T15:17:45.165Z,53.00
2022-12-03T15:20:12.617Z,53.00
2022-12-03T15:22:40.690Z,53.00
2022-12-03T15:25:08.090Z,53.20
2022-12-03T15:27:35.658Z,53.00
2022-12-03T15:30:02.419Z,53.00
2022-12-03T15:32:29.153Z,53.00
2022-12-03T15:34:58.760Z,53.20
2022-12-03T15:37:25.519Z,53.10
2022-12-03T15:39:53.927Z,53.80
2022-12-03T15:42:20.871Z,53.20
2022-12-03T15:44:47.612Z,53.30
2022-12-03T15:47:14.372Z,53.00
2022-12-03T15:49:41.257Z,53.10
2022-12-03T15:52:08.049Z,53.10
2022-12-03T15:54:34.795Z,53.20
2022-12-03T15:57:02.869Z,53.20
2022-12-03T15:59:29.591Z,53.30
2022-12-03T16:01:56.354Z,53.30
2022-12-03T16:04:23.156Z,53.20
2022-12-03T16:06:49.893Z,53.20
2022-12-03T16:09:16.705Z,53.20
2022-12-03T16:11:43.467Z,53.10
2022-12-03T16:14:11.545Z,53.20
2022-12-03T16:16:38.322Z,53.10
2022-12-03T16:19:05.117Z,53.10
2022-12-03T16:21:31.878Z,53.00
2022-12-03T16:23:58.685Z,53.10
2022-12-03T16:26:25.574Z,53.10
2022-12-03T16:28:52.564Z,53.10
2022-12-03T16:31:20.702Z,53.20
2022-12-03T16:33:47.610Z,53.20
2022-12-03T16:36:14.355Z,53.20
2022-12-03T16:38:41.070Z,53.20
2022-12-03T16:41:07.939Z,53.20
2022-12-03T16:43:34.628Z,53.30
2022-12-03T16:46:01.401Z,53.20
2022-12-03T16:48:29.877Z,53.30
2022-12-03T16:51:26.827Z,53.30
2022-12-03T16:53:53.623Z,53.40
2022-12-03T16:56:21.426Z,53.30
2022-12-03T16:58:48.126Z,53.30
2022-12-03T17:01:14.904Z,53.30
2022-12-03T17:03:43.055Z,53.30
2022-12-03T17:06:09.849Z,53.30
2022-12-03T17:08:36.621Z,53.30
2022-12-03T17:11:03.416Z,53.40
2022-12-03T17:13:30.170Z,53.30
2022-12-03T17:15:56.941Z,53.30
2022-12-03T17:18:23.713Z,53.20
2022-12-03T17:20:51.822Z,53.30
2022-12-03T17:23:18.597Z,53.30
2022-12-03T17:25:45.314Z,53.30
2022-12-03T17:28:12.012Z,53.50
2022-12-03T17:30:38.800Z,53.30
2022-12-03T17:33:05.531Z,53.40
2022-12-03T17:35:32.723Z,53.60
2022-12-03T17:38:00.802Z,53.50
2022-12-03T17:40:27.510Z,53.50
2022-12-03T17:42:54.205Z,53.50
2022-12-03T17:45:20.938Z,53.60
2022-12-03T17:47:47.665Z,53.50
2022-12-03T17:50:14.918Z,53.80
2022-12-03T17:52:41.659Z,53.50
2022-12-03T17:55:13.909Z,53.70
2022-12-03T17:57:42.974Z,53.70
2022-12-03T18:00:10.794Z,53.70
2022-12-03T18:02:37.531Z,53.70
2022-12-03T18:05:04.588Z,53.70
2022-12-03T18:07:31.357Z,53.80
2022-12-03T18:09:58.229Z,53.80
2022-12-03T18:12:26.534Z,53.80
2022-12-03T18:14:53.256Z,53.80
2022-12-03T18:17:19.976Z,53.90
2022-12-03T18:19:46.728Z,53.90
2022-12-03T18:22:13.633Z,53.90
2022-12-03T18:24:40.541Z,53.90
2022-12-03T18:27:07.497Z,53.90
2022-12-03T18:29:35.781Z,53.90
2022-12-03T18:32:02.673Z,53.90
2022-12-03T18:34:29.448Z,53.90
2022-12-03T18:36:56.186Z,53.90
2022-12-03T18:39:26.654Z,54.00
2022-12-03T18:41:53.941Z,53.90
2022-12-03T18:44:20.697Z,53.90
2022-12-03T18:46:53.905Z,53.90
2022-12-03T18:49:21.205Z,54.00
2022-12-03T18:51:48.602Z,53.90
2022-12-03T18:54:15.838Z,53.90
2022-12-03T18:56:42.577Z,53.90
2022-12-03T18:59:09.676Z,53.90
2022-12-03T19:01:36.527Z,53.90
2022-12-03T19:04:04.852Z,53.80
2022-12-03T19:06:32.315Z,53.80
2022-12-03T19:08:59.137Z,53.90
2022-12-03T19:11:25.837Z,53.90
2022-12-03T19:13:52.706Z,53.90
2022-12-03T19:16:19.533Z,54.10
2022-12-03T19:18:46.306Z,53.90
2022-12-03T19:21:16.129Z,54.00
2022-12-03T19:24:04.272Z,54.00
2022-12-03T19:26:30.676Z,53.90
2022-12-03T19:28:57.527Z,53.90
2022-12-03T19:31:24.335Z,53.90
2022-12-03T19:33:51.160Z,53.90
2022-12-03T19:36:23.692Z,53.90
2022-12-03T19:38:56.733Z,53.90
2022-12-03T19:41:25.073Z,53.90
2022-12-03T19:43:53.835Z,53.90
2022-12-03T19:46:22.292Z,53.90
2022-12-03T19:48:49.173Z,53.90
2022-12-03T19:51:33.521Z,53.90
2022-12-03T19:54:02.719Z,53.90
2022-12-03T19:56:29.496Z,53.90
2022-12-03T19:58:56.754Z,53.90
2022-12-03T20:01:25.043Z,53.80
2022-12-03T20:03:53.592Z,53.90
2022-12-03T20:06:22.782Z,53.90
2022-12-03T20:08:49.657Z,53.90
2022-12-03T20:11:20.449Z,53.90
2022-12-03T20:13:48.945Z,53.90
2022-12-03T20:16:16.235Z,53.90
2022-12-03T20:18:45.055Z,54.00
2022-12-03T20:21:13.472Z,54.00
2022-12-03T20:23:40.258Z,54.60
2022-12-03T20:26:08.175Z,54.00
2022-12-03T20:28:36.471Z,53.90
2022-12-03T20:31:05.522Z,53.90
2022-12-03T20:33:32.274Z,53.90
2022-12-03T20:35:59.148Z,54.00
2022-12-03T20:38:25.941Z,53.90
2022-12-03T20:40:53.219Z,54.10
2022-12-03T20:43:20.296Z,54.00
2022-12-03T20:45:48.403Z,54.00
2022-12-03T20:48:15.163Z,53.90
2022-12-03T20:50:41.946Z,53.90
2022-12-03T20:53:24.153Z,54.00
2022-12-03T20:55:55.301Z,54.00
2022-12-03T20:58:22.037Z,54.00
2022-12-03T21:00:50.219Z,54.00
2022-12-03T21:03:17.172Z,54.00
2022-12-03T21:05:43.935Z,54.00
2022-12-03T21:08:11.151Z,54.10
2022-12-03T21:10:38.607Z,54.10
2022-12-03T21:13:05.330Z,54.00
2022-12-03T21:15:32.105Z,54.00
2022-12-03T21:18:00.430Z,54.00
2022-12-03T21:20:27.153Z,54.10
2022-12-03T21:22:53.889Z,54.00
2022-12-03T21:25:20.653Z,54.60
2022-12-03T21:27:47.413Z,54.50
2022-12-03T21:30:14.606Z,54.30
2022-12-03T21:32:41.473Z,54.10
2022-12-03T21:35:09.867Z,54.00
2022-12-03T21:37:36.621Z,54.00
2022-12-03T21:40:03.653Z,54.00
2022-12-03T21:42:35.814Z,54.00
2022-12-03T21:45:05.060Z,54.10
2022-12-03T21:47:36.934Z,54.10
2022-12-03T21:50:05.155Z,54.30
2022-12-03T21:52:33.924Z,54.10
2022-12-03T21:55:00.672Z,54.10
2022-12-03T21:57:27.511Z,54.10
2022-12-03T21:59:55.736Z,54.10
2022-12-03T22:02:22.719Z,54.00
2022-12-03T22:04:49.816Z,54.00
2022-12-03T22:07:16.973Z,54.00
2022-12-03T22:09:45.135Z,54.10
2022-12-03T22:12:12.091Z,54.00
2022-12-03T22:14:38.824Z,54.00
2022-12-03T22:17:05.569Z,54.00
2022-12-03T22:19:32.295Z,54.20
2022-12-03T22:21:59.118Z,54.00
2022-12-03T22:24:25.931Z,54.10
2022-12-03T22:26:54.005Z,54.00
2022-12-03T22:29:21.103Z,54.10
2022-12-03T22:31:47.869Z,54.00
2022-12-03T22:34:14.727Z,54.00
2022-12-03T22:36:41.463Z,54.00
2022-12-03T22:39:08.236Z,54.00
2022-12-03T22:41:34.957Z,54.00
2022-12-03T22:44:03.067Z,54.00
2022-12-03T22:46:29.868Z,54.00
2022-12-03T22:49:00.500Z,54.20
2022-12-03T22:51:30.112Z,54.00
2022-12-03T22:53:58.316Z,54.10
2022-12-03T22:56:26.245Z,54.10
2022-12-03T22:58:53.325Z,54.00
2022-12-03T23:01:24.350Z,54.00
2022-12-03T23:03:51.394Z,54.10
2022-12-03T23:06:19.289Z,54.10
2022-12-03T23:08:46.617Z,54.00
2022-12-03T23:11:13.375Z,54.00
2022-12-03T23:13:40.369Z,54.00
2022-12-03T23:16:09.463Z,54.00
2022-12-03T23:18:37.633Z,54.00
2022-12-03T23:21:04.536Z,54.00
2022-12-03T23:23:31.276Z,54.00
2022-12-03T23:25:58.695Z,54.00
2022-12-03T23:28:25.596Z,54.00
2022-12-03T23:30:52.366Z,54.20
2022-12-03T23:33:19.459Z,54.10
2022-12-03T23:35:47.533Z,54.10
2022-12-03T23:38:15.165Z,54.10
2022-12-03T23:40:47.703Z,54.10
2022-12-03T23:43:15.036Z,54.10
2022-12-03T23:45:41.856Z,54.20
2022-12-03T23:48:08.636Z,54.10
2022-12-03T23:50:39.002Z,54.30
2022-12-03T23:53:07.110Z,54.10
2022-12-03T23:55:33.843Z,54.30
2022-12-03T23:58:00.751Z,54.20
